createdAt,value
2019-03-06T00:02:03.608Z,10.00
2019-03-06T00:04:34.928Z,10.00
2019-03-06T00:07:06.010Z,10.00
2019-03-06T00:09:37.451Z,10.00
2019-03-06T00:12:08.541Z,10.00
2019-03-06T00:14:40.211Z,10.00
2019-03-06T00:17:11.174Z,10.00
2019-03-06T00:19:42.254Z,9.90
2019-03-06T00:22:13.576Z,10.00
2019-03-06T00:24:45.018Z,9.90
2019-03-06T00:27:16.140Z,9.90
2019-03-06T00:29:47.179Z,9.90
2019-03-06T00:32:18.382Z,9.90
2019-03-06T00:34:50.181Z,9.90
2019-03-06T00:37:21.745Z,9.90
2019-03-06T00:39:59.785Z,9.90
2019-03-06T00:42:33.388Z,9.90
2019-03-06T00:45:04.708Z,9.90
2019-03-06T00:47:35.910Z,9.90
2019-03-06T00:50:07.111Z,9.90
2019-03-06T00:52:38.552Z,9.90
2019-03-06T00:55:09.394Z,9.90
2019-03-06T00:57:40.716Z,9.90
2019-03-06T01:00:12.166Z,9.90
2019-03-06T01:02:42.876Z,9.90
2019-03-06T01:05:15.879Z,9.90
2019-03-06T01:07:47.319Z,9.90
2019-03-06T01:10:18.760Z,9.90
2019-03-06T01:12:49.841Z,9.90
2019-03-06T01:15:21.042Z,9.80
2019-03-06T01:17:55.612Z,9.80
2019-03-06T01:20:26.686Z,9.80
2019-03-06T01:22:57.766Z,9.80
2019-03-06T01:25:29.089Z,9.80
2019-03-06T01:28:00.289Z,9.80
2019-03-06T01:30:31.011Z,9.80
2019-03-06T01:33:21.052Z,9.80
2019-03-06T01:36:07.734Z,9.80
2019-03-06T01:38:56.456Z,9.70
2019-03-06T01:41:49.380Z,9.70
2019-03-06T01:44:25.017Z,9.70
2019-03-06T01:46:56.226Z,9.70
2019-03-06T01:49:26.940Z,9.70
2019-03-06T01:51:57.900Z,9.60
2019-03-06T01:54:28.864Z,9.60
2019-03-06T01:57:00.189Z,9.70
2019-03-06T01:59:31.384Z,9.70
2019-03-06T02:02:02.468Z,9.60
2019-03-06T02:04:33.428Z,9.60
2019-03-06T02:07:05.590Z,9.60
2019-03-06T02:09:36.566Z,9.60
2019-03-06T02:12:11.114Z,9.60
2019-03-06T02:14:41.712Z,9.60
2019-03-06T02:17:12.674Z,9.60
2019-03-06T02:19:44.598Z,9.50
2019-03-06T02:22:15.676Z,9.50
2019-03-06T02:24:46.158Z,9.50
2019-03-06T02:27:16.998Z,9.50
2019-03-06T02:29:47.960Z,9.50
2019-03-06T02:32:19.288Z,9.50
2019-03-06T02:34:50.251Z,9.50
2019-03-06T02:37:21.328Z,9.50
2019-03-06T02:39:53.010Z,9.50
2019-03-06T02:42:23.967Z,9.50
2019-03-06T02:44:57.330Z,9.50
2019-03-06T02:47:29.255Z,9.40
2019-03-06T02:50:00.452Z,9.50
2019-03-06T02:52:32.145Z,9.50
2019-03-06T02:55:03.452Z,9.50
2019-03-06T02:57:34.175Z,9.50
2019-03-06T03:00:27.821Z,9.50
2019-03-06T03:03:08.140Z,9.50
2019-03-06T03:05:56.501Z,9.40
2019-03-06T03:08:27.821Z,9.40
2019-03-06T03:10:58.546Z,9.40
2019-03-06T03:13:29.742Z,9.40
2019-03-06T03:16:02.154Z,9.40
2019-03-06T03:18:33.946Z,9.40
2019-03-06T03:21:04.668Z,9.40
2019-03-06T03:23:35.638Z,9.40
2019-03-06T03:26:06.470Z,9.40
2019-03-06T03:28:37.599Z,9.40
2019-03-06T03:31:08.993Z,9.40
2019-03-06T03:33:39.844Z,9.40
2019-03-06T03:36:11.035Z,9.40
2019-03-06T03:38:41.876Z,9.40
2019-03-06T03:41:12.717Z,9.40
2019-03-06T03:43:43.799Z,9.40
2019-03-06T03:46:15.241Z,9.40
2019-03-06T03:48:46.202Z,9.40
2019-03-06T03:51:17.167Z,9.40
2019-03-06T03:53:50.282Z,9.40
2019-03-06T03:56:21.725Z,9.40
2019-03-06T03:58:52.687Z,9.40
2019-03-06T04:01:23.887Z,9.30
2019-03-06T04:03:55.332Z,9.40
2019-03-06T04:06:26.289Z,9.40
2019-03-06T04:08:57.488Z,9.40
2019-03-06T04:11:28.334Z,9.40
2019-03-06T04:13:59.654Z,9.40
2019-03-06T04:16:30.853Z,9.40
2019-03-06T04:19:01.580Z,9.30
2019-03-06T04:21:32.537Z,9.40
2019-03-06T04:24:03.383Z,9.40
2019-03-06T04:26:34.702Z,9.40
2019-03-06T04:29:05.901Z,9.30
2019-03-06T04:31:37.341Z,9.40
2019-03-06T04:34:08.662Z,9.40
2019-03-06T04:36:41.424Z,9.30
2019-03-06T04:39:12.631Z,9.30
2019-03-06T04:41:43.348Z,9.30
2019-03-06T04:44:14.786Z,9.30
2019-03-06T04:46:45.751Z,9.30
2019-03-06T04:49:17.069Z,9.30
2019-03-06T04:51:47.911Z,9.30
2019-03-06T04:54:18.993Z,9.30
2019-03-06T04:56:50.434Z,9.30
2019-03-06T04:59:21.635Z,9.30
2019-03-06T05:01:52.717Z,9.30
2019-03-06T05:04:24.403Z,9.30
2019-03-06T05:06:55.721Z,9.30
2019-03-06T05:09:27.281Z,9.30
2019-03-06T05:11:58.658Z,9.30
2019-03-06T05:14:29.324Z,9.30
2019-03-06T05:17:28.245Z,9.30
2019-03-06T05:19:59.737Z,9.30
2019-03-06T05:22:31.247Z,9.30
2019-03-06T05:25:02.087Z,9.30
2019-03-06T05:27:34.129Z,9.20
2019-03-06T05:30:05.689Z,9.30
2019-03-06T05:32:37.851Z,9.20
2019-03-06T05:35:25.131Z,9.20
2019-03-06T05:38:05.339Z,9.20
2019-03-06T05:40:37.137Z,9.20
2019-03-06T05:43:08.579Z,9.20
2019-03-06T05:45:40.018Z,9.20
2019-03-06T05:48:10.989Z,9.20
2019-03-06T05:50:42.305Z,9.20
2019-03-06T05:53:13.381Z,9.20
2019-03-06T05:55:44.393Z,9.20
2019-03-06T05:58:15.428Z,9.20
2019-03-06T06:00:46.385Z,9.20
2019-03-06T06:03:17.468Z,9.20
2019-03-06T06:05:48.787Z,9.20
2019-03-06T06:08:20.110Z,9.20
2019-03-06T06:10:52.511Z,9.20
2019-03-06T06:13:23.591Z,9.20
2019-03-06T06:15:54.435Z,9.20
2019-03-06T06:18:25.875Z,9.20
2019-03-06T06:21:13.995Z,9.20
2019-03-06T06:23:55.037Z,9.20
2019-03-06T06:26:25.879Z,9.20
2019-03-06T06:28:56.839Z,9.20
2019-03-06T06:31:27.441Z,9.20
2019-03-06T06:33:59.481Z,9.20
2019-03-06T06:36:30.564Z,9.20
2019-03-06T06:39:01.525Z,9.20
2019-03-06T06:41:34.169Z,9.20
2019-03-06T06:44:05.367Z,9.20
2019-03-06T06:46:36.688Z,9.20
2019-03-06T06:49:08.372Z,9.20
2019-03-06T06:52:18.813Z,9.20
2019-03-06T06:55:13.297Z,9.20
2019-03-06T06:58:15.814Z,9.10
2019-03-06T07:01:45.941Z,9.10
2019-03-06T07:07:44.861Z,9.10
2019-03-06T07:10:33.821Z,9.10
2019-03-06T07:13:30.223Z,9.10
2019-03-06T07:16:20.145Z,9.10
2019-03-06T07:19:22.065Z,9.10
2019-03-06T07:22:11.866Z,9.20
2019-03-06T07:25:00.947Z,9.20
2019-03-06T07:27:42.589Z,9.20
2019-03-06T07:30:32.439Z,9.20
2019-03-06T07:33:19.084Z,9.20
2019-03-06T07:36:19.676Z,9.20
2019-03-06T07:38:55.553Z,9.20
2019-03-06T07:41:44.155Z,9.30
2019-03-06T07:44:33.000Z,9.30
2019-03-06T07:47:28.808Z,9.30
2019-03-06T07:50:14.182Z,9.30
2019-03-06T07:53:19.201Z,9.30
2019-03-06T07:55:59.287Z,9.30
2019-03-06T07:58:51.501Z,9.40
2019-03-06T08:01:23.647Z,9.40
2019-03-06T08:04:07.209Z,9.30
2019-03-06T08:06:39.367Z,9.40
2019-03-06T08:09:12.378Z,9.30
2019-03-06T08:11:58.815Z,9.40
2019-03-06T08:15:00.872Z,9.40
2019-03-06T08:17:42.144Z,9.40
2019-03-06T08:20:29.054Z,9.40
2019-03-06T08:23:28.457Z,9.40
2019-03-06T08:25:59.421Z,9.50
2019-03-06T08:28:30.862Z,9.50
2019-03-06T08:31:21.021Z,9.50
2019-03-06T08:33:51.981Z,9.50
2019-03-06T08:36:23.307Z,9.50
2019-03-06T08:38:54.383Z,9.60
2019-03-06T08:41:26.798Z,9.60
2019-03-06T08:43:57.990Z,9.60
2019-03-06T08:50:11.910Z,9.60
2019-03-06T08:52:50.792Z,9.60
2019-03-06T08:55:46.834Z,9.60
2019-03-06T08:58:30.757Z,9.60
2019-03-06T09:02:00.883Z,9.60
2019-03-06T09:04:52.717Z,9.60
2019-03-06T09:07:46.119Z,9.60
2019-03-06T09:10:40.002Z,9.60
2019-03-06T09:13:26.324Z,9.60
2019-03-06T09:16:11.226Z,9.60
2019-03-06T09:19:03.769Z,9.80
2019-03-06T09:21:46.606Z,9.80
2019-03-06T09:24:30.290Z,9.80
2019-03-06T09:27:11.694Z,9.80
2019-03-06T09:30:00.469Z,9.90
2019-03-06T09:32:56.693Z,9.80
2019-03-06T09:35:37.135Z,9.80
2019-03-06T09:38:25.618Z,9.90
2019-03-06T09:41:15.656Z,9.90
2019-03-06T09:44:05.938Z,9.90
2019-03-06T09:46:51.540Z,9.90
2019-03-06T09:49:47.583Z,10.00
2019-03-06T09:52:40.622Z,10.10
2019-03-06T09:55:42.664Z,10.10
2019-03-06T09:58:25.986Z,10.20
2019-03-06T10:01:18.904Z,10.10
2019-03-06T10:04:00.789Z,10.10
2019-03-06T10:06:52.040Z,10.10
2019-03-06T10:09:41.230Z,10.20
2019-03-06T10:12:37.392Z,10.20
2019-03-06T10:15:21.554Z,10.20
2019-03-06T10:18:05.474Z,10.30
2019-03-06T10:20:36.680Z,10.40
2019-03-06T10:23:08.956Z,10.40
2019-03-06T10:25:39.806Z,10.50
2019-03-06T10:28:10.882Z,10.50
2019-03-06T10:30:41.966Z,10.50
2019-03-06T10:33:12.939Z,10.60
2019-03-06T10:35:44.842Z,10.60
2019-03-06T10:38:16.833Z,10.70
2019-03-06T10:40:48.326Z,10.70
2019-03-06T10:43:19.289Z,10.70
2019-03-06T10:45:50.368Z,10.80
2019-03-06T10:48:20.851Z,10.80
2019-03-06T10:50:51.987Z,10.80
2019-03-06T10:53:24.572Z,10.80
2019-03-06T10:55:56.019Z,10.90
2019-03-06T10:58:26.974Z,10.90
2019-03-06T11:00:58.057Z,11.00
2019-03-06T11:03:47.856Z,11.00
2019-03-06T11:06:18.818Z,11.00
2019-03-06T11:08:50.020Z,11.10
2019-03-06T11:11:21.463Z,11.00
2019-03-06T11:13:53.751Z,11.10
2019-03-06T11:16:25.066Z,11.10
2019-03-06T11:18:56.947Z,11.10
2019-03-06T11:21:29.026Z,11.10
2019-03-06T11:24:00.471Z,11.10
2019-03-06T11:26:33.356Z,11.10
2019-03-06T11:29:06.230Z,11.20
2019-03-06T11:31:37.555Z,11.20
2019-03-06T11:34:09.112Z,11.20
2019-03-06T11:36:40.078Z,11.30
2019-03-06T11:39:12.714Z,11.30
2019-03-06T11:41:44.278Z,11.30
2019-03-06T11:44:15.596Z,11.30
2019-03-06T11:46:47.281Z,11.30
2019-03-06T11:49:18.123Z,11.30
2019-03-06T11:51:49.321Z,11.40
2019-03-06T11:54:20.162Z,11.40
2019-03-06T11:56:51.126Z,11.40
2019-03-06T11:59:22.324Z,11.40
2019-03-06T12:01:53.287Z,11.40
2019-03-06T12:04:25.210Z,11.40
2019-03-06T12:06:56.530Z,11.40
2019-03-06T12:09:32.412Z,11.40
2019-03-06T12:12:05.172Z,11.40
2019-03-06T12:14:36.252Z,11.40
2019-03-06T12:17:07.094Z,11.50
2019-03-06T12:19:38.536Z,11.50
2019-03-06T12:22:09.497Z,11.50
2019-03-06T12:24:40.698Z,11.50
2019-03-06T12:27:11.897Z,11.60
2019-03-06T12:29:43.101Z,11.60
2019-03-06T12:32:14.182Z,11.60
2019-03-06T12:34:45.263Z,11.60
2019-03-06T12:37:16.346Z,11.60
2019-03-06T12:39:47.546Z,11.60
2019-03-06T12:42:18.628Z,11.60
2019-03-06T12:44:49.828Z,11.60
2019-03-06T12:47:21.028Z,11.70
2019-03-06T12:49:52.112Z,11.70
2019-03-06T12:52:23.191Z,11.70
2019-03-06T12:54:54.273Z,11.70
2019-03-06T12:57:25.233Z,11.70
2019-03-06T12:59:56.317Z,11.80
2019-03-06T13:02:27.638Z,11.80
2019-03-06T13:04:58.597Z,11.80
2019-03-06T13:07:29.681Z,11.80
2019-03-06T13:10:01.123Z,11.90
2019-03-06T13:12:33.162Z,11.90
2019-03-06T13:15:04.849Z,11.90
2019-03-06T13:17:36.359Z,11.90
2019-03-06T13:22:45.410Z,11.90
2019-03-06T13:25:19.969Z,11.90
2019-03-06T13:27:54.821Z,12.00
2019-03-06T13:30:24.771Z,12.00
2019-03-06T13:33:13.679Z,12.10
2019-03-06T13:35:44.459Z,12.10
2019-03-06T13:38:15.993Z,12.10
2019-03-06T13:40:47.579Z,12.10
2019-03-06T13:43:18.536Z,12.10
2019-03-06T13:45:49.745Z,12.10
2019-03-06T13:48:20.821Z,12.10
2019-03-06T13:50:51.663Z,12.20
2019-03-06T13:53:22.983Z,12.20
2019-03-06T13:55:54.428Z,12.20
2019-03-06T13:58:25.267Z,12.20
2019-03-06T14:00:56.225Z,12.30
2019-03-06T14:03:27.310Z,12.30
2019-03-06T14:06:01.389Z,12.30
2019-03-06T14:08:33.071Z,12.30
2019-03-06T14:11:04.753Z,12.40
2019-03-06T14:13:35.593Z,12.40
2019-03-06T14:16:07.154Z,12.40
2019-03-06T14:18:39.317Z,12.50
2019-03-06T14:21:11.120Z,12.50
2019-03-06T14:23:42.078Z,12.50
2019-03-06T14:26:13.519Z,12.60
2019-03-06T14:28:45.199Z,12.60
2019-03-06T14:31:18.444Z,12.60
2019-03-06T14:33:50.246Z,12.60
2019-03-06T14:36:21.444Z,12.70
2019-03-06T14:38:52.765Z,12.70
2019-03-06T14:41:23.728Z,12.70
2019-03-06T14:43:54.809Z,12.80
2019-03-06T14:46:27.570Z,12.80
2019-03-06T14:48:58.649Z,12.80
2019-03-06T14:51:29.971Z,12.80
2019-03-06T14:54:02.262Z,12.80
2019-03-06T14:56:32.857Z,12.90
2019-03-06T14:59:05.497Z,12.90
2019-03-06T15:01:36.339Z,12.90
2019-03-06T15:04:07.777Z,13.00
2019-03-06T15:06:38.499Z,13.00
2019-03-06T15:09:22.661Z,13.00
2019-03-06T15:11:53.743Z,13.00
2019-03-06T15:14:25.078Z,13.00
2019-03-06T15:16:55.903Z,13.00
2019-03-06T15:19:28.314Z,13.00
2019-03-06T15:21:59.989Z,13.00
2019-03-06T15:24:41.025Z,13.00
2019-03-06T15:27:05.271Z,13.00
2019-03-06T15:29:36.233Z,13.00
2019-03-06T15:32:07.437Z,13.00
2019-03-06T15:34:38.275Z,13.10
2019-03-06T15:37:09.596Z,13.10
2019-03-06T15:39:45.674Z,13.10
2019-03-06T15:42:17.518Z,13.10
2019-03-06T15:44:48.361Z,13.10
2019-03-06T15:47:19.440Z,13.10
2019-03-06T15:49:50.284Z,13.10
2019-03-06T15:52:21.243Z,13.00
2019-03-06T15:54:52.799Z,13.10
2019-03-06T15:57:23.772Z,13.10
2019-03-06T15:59:55.327Z,13.10
2019-03-06T16:02:27.610Z,13.10
2019-03-06T16:04:59.050Z,13.10
2019-03-06T16:07:30.372Z,13.10
2019-03-06T16:10:02.295Z,13.20
2019-03-06T16:12:34.692Z,13.20
2019-03-06T16:15:06.737Z,13.20
2019-03-06T16:17:38.176Z,13.20
2019-03-06T16:20:16.099Z,13.10
2019-03-06T16:22:47.661Z,13.20
2019-03-06T16:25:19.219Z,13.20
2019-03-06T16:27:50.903Z,13.20
2019-03-06T16:30:22.465Z,13.20
2019-03-06T16:32:53.549Z,13.20
2019-03-06T16:35:25.102Z,13.30
2019-03-06T16:37:56.545Z,13.30
2019-03-06T16:40:30.397Z,13.40
2019-03-06T16:43:02.553Z,13.40
2019-03-06T16:45:33.510Z,13.40
2019-03-06T16:48:04.712Z,13.40
2019-03-06T16:50:35.913Z,13.40
2019-03-06T16:53:07.235Z,13.40
2019-03-06T16:55:39.936Z,13.40
2019-03-06T16:58:10.964Z,13.40
2019-03-06T17:00:42.042Z,13.40
2019-03-06T17:03:13.001Z,13.40
2019-03-06T17:05:44.445Z,13.40
2019-03-06T17:08:15.520Z,13.40
2019-03-06T17:10:47.324Z,13.40
2019-03-06T17:13:18.403Z,13.40
2019-03-06T17:15:49.725Z,13.40
2019-03-06T17:18:20.928Z,13.50
2019-03-06T17:20:51.895Z,13.50
2019-03-06T17:23:23.209Z,13.50
2019-03-06T17:25:55.011Z,13.50
2019-03-06T17:28:26.099Z,13.50
2019-03-06T17:30:57.533Z,13.50
2019-03-06T17:33:28.973Z,13.50
2019-03-06T17:36:00.775Z,13.50
2019-03-06T17:38:32.215Z,13.50
2019-03-06T17:41:03.062Z,13.50
2019-03-06T17:43:34.861Z,13.50
2019-03-06T17:46:06.420Z,13.50
2019-03-06T17:48:37.743Z,13.50
2019-03-06T17:51:09.065Z,13.50
2019-03-06T17:53:40.505Z,13.50
2019-03-06T17:56:11.831Z,13.50
2019-03-06T17:58:43.027Z,13.50
2019-03-06T18:01:18.075Z,13.50
2019-03-06T18:03:53.949Z,13.60
2019-03-06T18:06:24.911Z,13.50
2019-03-06T18:08:55.752Z,13.50
2019-03-06T18:11:27.195Z,13.60
2019-03-06T18:13:58.275Z,13.60
2019-03-06T18:16:31.035Z,13.60
2019-03-06T18:19:02.358Z,13.60
2019-03-06T18:21:33.923Z,13.50
2019-03-06T18:24:05.119Z,13.50
2019-03-06T18:26:36.683Z,13.60
2019-03-06T18:29:08.843Z,13.60
2019-03-06T18:31:40.523Z,13.60
2019-03-06T18:34:11.245Z,13.60
2019-03-06T18:36:42.927Z,13.60
2019-03-06T18:39:21.688Z,13.60
2019-03-06T18:41:52.775Z,13.60
2019-03-06T18:44:23.490Z,13.60
2019-03-06T18:46:54.812Z,13.60
2019-03-06T18:49:25.771Z,13.60
2019-03-06T18:51:56.617Z,13.60
2019-03-06T18:54:27.332Z,13.60
2019-03-06T18:56:58.417Z,13.60
2019-03-06T18:59:30.818Z,13.60
2019-03-06T19:02:02.379Z,13.60
2019-03-06T19:04:33.341Z,13.60
2019-03-06T19:07:05.620Z,13.60
2019-03-06T19:09:36.943Z,13.60
2019-03-06T19:12:09.584Z,13.60
2019-03-06T19:14:42.457Z,13.60
2019-03-06T19:17:13.426Z,13.60
2019-03-06T19:19:44.387Z,13.60
2019-03-06T19:22:15.469Z,13.60
2019-03-06T19:24:46.191Z,13.60
2019-03-06T19:27:17.513Z,13.60
2019-03-06T19:29:48.355Z,13.60
2019-03-06T19:32:20.158Z,13.60
2019-03-06T19:34:51.596Z,13.60
2019-03-06T19:37:22.918Z,13.60
2019-03-06T19:39:54.363Z,13.60
2019-03-06T19:42:25.436Z,13.60
2019-03-06T19:44:56.399Z,13.60
2019-03-06T19:47:28.083Z,13.60
2019-03-06T19:49:59.161Z,13.60
2019-03-06T19:52:30.124Z,13.60
2019-03-06T19:55:01.085Z,13.60
2019-03-06T19:57:51.726Z,13.60
2019-03-06T20:00:23.767Z,13.50
2019-03-06T20:02:54.970Z,13.50
2019-03-06T20:05:27.251Z,13.50
2019-03-06T20:07:58.933Z,13.50
2019-03-06T20:10:30.253Z,13.50
2019-03-06T20:13:01.701Z,13.50
2019-03-06T20:15:34.461Z,13.50
2019-03-06T20:18:06.015Z,13.50
2019-03-06T20:20:37.627Z,13.50
2019-03-06T20:23:09.624Z,13.50
2019-03-06T20:25:43.820Z,13.50
2019-03-06T20:28:15.883Z,13.50
2019-03-06T20:30:46.823Z,13.50
2019-03-06T20:33:18.870Z,13.50
2019-03-06T20:35:51.867Z,13.40
2019-03-06T20:38:24.869Z,13.50
2019-03-06T20:40:55.956Z,13.50
2019-03-06T20:43:27.271Z,13.40
2019-03-06T20:45:59.796Z,13.40
2019-03-06T20:48:31.114Z,13.50
2019-03-06T20:51:02.553Z,13.40
2019-03-06T20:53:33.640Z,13.40
2019-03-06T20:56:05.077Z,13.40
2019-03-06T20:58:35.922Z,13.50
2019-03-06T21:01:07.357Z,13.40
2019-03-06T21:03:39.041Z,13.40
2019-03-06T21:06:09.879Z,13.40
2019-03-06T21:08:42.043Z,13.40
2019-03-06T21:11:13.365Z,13.40
2019-03-06T21:13:44.688Z,13.40
2019-03-06T21:16:15.533Z,13.30
2019-03-06T21:18:46.607Z,13.40
2019-03-06T21:21:17.928Z,13.30
2019-03-06T21:23:49.129Z,13.30
2019-03-06T21:26:20.091Z,13.30
2019-03-06T21:28:51.652Z,13.30
2019-03-06T21:31:22.858Z,13.30
2019-03-06T21:33:54.295Z,13.30
2019-03-06T21:36:26.095Z,13.30
2019-03-06T21:38:57.417Z,13.30
2019-03-06T21:41:28.259Z,13.30
2019-03-06T21:43:59.105Z,13.30
2019-03-06T21:46:30.181Z,13.30
2019-03-06T21:49:16.862Z,13.30
2019-03-06T21:51:50.708Z,13.30
2019-03-06T21:54:22.266Z,13.30
2019-03-06T21:56:53.466Z,13.30
2019-03-06T21:59:25.882Z,13.30
2019-03-06T22:01:57.913Z,13.30
2019-03-06T22:04:29.955Z,13.20
2019-03-06T22:07:01.631Z,13.30
2019-03-06T22:09:36.086Z,13.30
2019-03-06T22:12:07.034Z,13.30
2019-03-06T22:14:38.116Z,13.30
2019-03-06T22:17:13.516Z,13.30
2019-03-06T22:19:56.484Z,13.20
2019-03-06T22:22:35.514Z,13.30
2019-03-06T22:25:14.485Z,13.30
2019-03-06T22:27:48.922Z,13.30
2019-03-06T22:30:23.852Z,13.30
2019-03-06T22:32:54.803Z,13.40
2019-03-06T22:35:26.965Z,13.30
2019-03-06T22:37:58.288Z,13.30
2019-03-06T22:40:29.247Z,13.30
2019-03-06T22:43:00.452Z,13.30
2019-03-06T22:45:31.781Z,13.30
2019-03-06T22:48:03.580Z,13.30
2019-03-06T22:50:35.493Z,13.30
2019-03-06T22:53:07.413Z,13.40
2019-03-06T22:55:39.579Z,13.40
2019-03-06T22:58:12.817Z,13.40
2019-03-06T23:00:50.497Z,13.40
2019-03-06T23:03:23.021Z,13.40
2019-03-06T23:05:53.982Z,13.40
2019-03-06T23:08:25.542Z,13.40
2019-03-06T23:10:57.223Z,13.40
2019-03-06T23:13:28.788Z,13.40
2019-03-06T23:15:59.745Z,13.40
2019-03-06T23:18:30.590Z,13.40
2019-03-06T23:21:01.792Z,13.50
2019-03-06T23:23:32.870Z,13.50
2019-03-06T23:26:03.836Z,13.40
2019-03-06T23:28:34.794Z,13.40
2019-03-06T23:31:05.993Z,13.40
2019-03-06T23:33:37.314Z,13.50
2019-03-06T23:36:08.644Z,13.40
2019-03-06T23:38:39.960Z,13.40
2019-03-06T23:41:11.159Z,13.50
2019-03-06T23:43:42.000Z,13.40
2019-03-06T23:46:13.680Z,13.40
2019-03-06T23:48:45.123Z,13.50
2019-03-06T23:51:30.125Z,13.50
2019-03-06T23:54:01.928Z,13.50
2019-03-06T23:56:32.647Z,13.50
2019-03-06T23:59:03.974Z,13.50
